UZB756 UBBB-UZTT
Flight info
| Callsign | UZB756 |
|---|---|
| Flight time | 1h 59m |
| Altitude | 35000 |
| Route | N0460F350 NAMAS N35 RODAR A909 TUNEK B143 KRS B738 NEBIT B476 DARVA T898 OGOLI N193 DIBAD |
| Aircraft | A20N/M-VGDW/C |
Departure
| Time | 2026-04-22 16:50 |
|---|---|
| Airport | Heydar Aliyev International Airport (UBBB) |
Arrival
| Time | 2026-04-22 18:49 |
|---|---|
| Airport | Tashkent International Airport (UZTT) |
| Time | Latitude | Longitude | Altitude | Speed | Heading |
|---|---|---|---|---|---|
| 2026-04-22 16:29 | 40.46715 | 50.05110 | 15 ft | 0 kts | 143° |
| 2026-04-22 16:41 | 40.46720 | 50.05105 | 16 ft | 2 kts | 143° |
| 2026-04-22 16:41 | 40.46732 | 50.05093 | 16 ft | 2 kts | 143° |
| 2026-04-22 16:41 | 40.46744 | 50.05081 | 16 ft | 2 kts | 143° |
| 2026-04-22 16:42 | 40.46756 | 50.05070 | 16 ft | 1 kts | 128° |
| 2026-04-22 16:42 | 40.46759 | 50.05051 | 16 ft | 2 kts | 72° |
| 2026-04-22 16:42 | 40.46750 | 50.05036 | 16 ft | 2 kts | 20° |
| 2026-04-22 16:42 | 40.46736 | 50.05030 | 16 ft | 2 kts | 24° |
| 2026-04-22 16:43 | 40.46725 | 50.05023 | 16 ft | 0 kts | 22° |
| 2026-04-22 16:43 | 40.46734 | 50.05029 | 16 ft | 3 kts | 23° |
| 2026-04-22 16:43 | 40.46745 | 50.05035 | 16 ft | 1 kts | 22° |
| 2026-04-22 16:43 | 40.46780 | 50.05049 | 16 ft | 7 kts | 12° |
| 2026-04-22 16:44 | 40.46825 | 50.05055 | 16 ft | 4 kts | 360° |
| 2026-04-22 16:44 | 40.46837 | 50.05054 | 16 ft | 0 kts | 357° |
| 2026-04-22 16:45 | 40.46838 | 50.05054 | 16 ft | 0 kts | 357° |
| 2026-04-22 16:45 | 40.46843 | 50.05054 | 16 ft | 2 kts | 357° |
| 2026-04-22 16:46 | 40.46892 | 50.05035 | 16 ft | 11 kts | 321° |
| 2026-04-22 16:46 | 40.46915 | 50.04903 | 16 ft | 18 kts | 268° |
| 2026-04-22 16:46 | 40.46910 | 50.04716 | 16 ft | 22 kts | 268° |
| 2026-04-22 16:46 | 40.46905 | 50.04499 | 16 ft | 25 kts | 268° |
| 2026-04-22 16:47 | 40.46900 | 50.04409 | 16 ft | 0 kts | 265° |
| 2026-04-22 16:47 | 40.46895 | 50.04363 | 16 ft | 12 kts | 257° |
| 2026-04-22 16:47 | 40.46862 | 50.04184 | 16 ft | 24 kts | 256° |
| 2026-04-22 16:47 | 40.46875 | 50.04007 | 16 ft | 21 kts | 326° |
| 2026-04-22 16:48 | 40.47042 | 50.03923 | 16 ft | 30 kts | 339° |
| 2026-04-22 16:48 | 40.47257 | 50.03820 | 16 ft | 34 kts | 340° |
| 2026-04-22 16:48 | 40.47485 | 50.03708 | 16 ft | 29 kts | 341° |
| 2026-04-22 16:48 | 40.47627 | 50.03673 | 16 ft | 15 kts | 348° |
| 2026-04-22 16:49 | 40.47683 | 50.03544 | 16 ft | 14 kts | 284° |
| 2026-04-22 16:49 | 40.47649 | 50.03513 | 16 ft | 4 kts | 167° |
| 2026-04-22 16:49 | 40.47647 | 50.03514 | 16 ft | 0 kts | 167° |
| 2026-04-22 16:49 | 40.47585 | 50.03532 | 16 ft | 37 kts | 167° |
| 2026-04-22 16:50 | 40.47071 | 50.03695 | 16 ft | 110 kts | 166° |
| 2026-04-22 16:50 | 40.46136 | 50.03986 | 46 ft | 163 kts | 167° |
| 2026-04-22 16:50 | 40.45018 | 50.04342 | 711 ft | 165 kts | 167° |
| 2026-04-22 16:50 | 40.43869 | 50.04724 | 1248 ft | 183 kts | 166° |
| 2026-04-22 16:51 | 40.42639 | 50.05137 | 1452 ft | 175 kts | 166° |
| 2026-04-22 16:51 | 40.41491 | 50.05528 | 1665 ft | 168 kts | 166° |
| 2026-04-22 16:51 | 40.40286 | 50.05902 | 1932 ft | 191 kts | 168° |
| 2026-04-22 16:51 | 40.38853 | 50.06304 | 2109 ft | 229 kts | 169° |
| 2026-04-22 16:52 | 40.37251 | 50.06875 | 2333 ft | 242 kts | 159° |
| 2026-04-22 16:52 | 40.35760 | 50.07964 | 2561 ft | 246 kts | 145° |
| 2026-04-22 16:52 | 40.34434 | 50.09416 | 2790 ft | 248 kts | 141° |
| 2026-04-22 16:52 | 40.33153 | 50.10920 | 3014 ft | 250 kts | 141° |
| 2026-04-22 16:53 | 40.31853 | 50.12453 | 3241 ft | 251 kts | 141° |
| 2026-04-22 16:53 | 40.30533 | 50.14001 | 3470 ft | 252 kts | 141° |
| 2026-04-22 16:53 | 40.29255 | 50.15605 | 3689 ft | 255 kts | 130° |
| 2026-04-22 16:53 | 40.28488 | 50.17717 | 3908 ft | 264 kts | 104° |
| 2026-04-22 16:54 | 40.28342 | 50.20160 | 4144 ft | 268 kts | 94° |
| 2026-04-22 16:54 | 40.28333 | 50.22628 | 4371 ft | 270 kts | 93° |
| 2026-04-22 16:54 | 40.28331 | 50.25087 | 4597 ft | 271 kts | 94° |
| 2026-04-22 16:54 | 40.28315 | 50.27566 | 4823 ft | 272 kts | 93° |
| 2026-04-22 16:55 | 40.28384 | 50.30079 | 5050 ft | 275 kts | 88° |
| 2026-04-22 16:55 | 40.28626 | 50.32567 | 5275 ft | 277 kts | 84° |
| 2026-04-22 16:55 | 40.28954 | 50.35100 | 5530 ft | 282 kts | 83° |
| 2026-04-22 16:55 | 40.29297 | 50.37677 | 6314 ft | 289 kts | 83° |
| 2026-04-22 16:56 | 40.29637 | 50.40251 | 7363 ft | 288 kts | 83° |
| 2026-04-22 16:56 | 40.29977 | 50.42863 | 8248 ft | 293 kts | 83° |
| 2026-04-22 16:56 | 40.30321 | 50.45523 | 9102 ft | 298 kts | 82° |
| 2026-04-22 16:56 | 40.30669 | 50.48232 | 9951 ft | 303 kts | 82° |
| 2026-04-22 16:57 | 40.31022 | 50.50984 | 10660 ft | 313 kts | 82° |
| 2026-04-22 16:57 | 40.31386 | 50.53833 | 11175 ft | 328 kts | 82° |
| 2026-04-22 16:57 | 40.31776 | 50.56895 | 11586 ft | 347 kts | 81° |
| 2026-04-22 16:57 | 40.32188 | 50.60120 | 11962 ft | 365 kts | 81° |
| 2026-04-22 16:58 | 40.32619 | 50.63503 | 12292 ft | 383 kts | 81° |
| 2026-04-22 16:58 | 40.33067 | 50.67022 | 12592 ft | 401 kts | 82° |
| 2026-04-22 16:58 | 40.33538 | 50.70737 | 12873 ft | 417 kts | 82° |
| 2026-04-22 16:58 | 40.34022 | 50.74578 | 13255 ft | 429 kts | 82° |
| 2026-04-22 16:59 | 40.34515 | 50.78475 | 13872 ft | 433 kts | 82° |
| 2026-04-22 16:59 | 40.35007 | 50.82390 | 14498 ft | 437 kts | 82° |
| 2026-04-22 16:59 | 40.35498 | 50.86309 | 15075 ft | 442 kts | 82° |
| 2026-04-22 16:59 | 40.36017 | 50.90349 | 15651 ft | 446 kts | 80° |
| 2026-04-22 17:00 | 40.36670 | 50.94401 | 16221 ft | 451 kts | 77° |
| 2026-04-22 17:00 | 40.38137 | 51.02506 | 17295 ft | 459 kts | 77° |
| 2026-04-22 17:00 | 40.38886 | 51.06596 | 17819 ft | 463 kts | 76° |
| 2026-04-22 17:01 | 40.39640 | 51.10729 | 18336 ft | 466 kts | 76° |
| 2026-04-22 17:01 | 40.40402 | 51.14920 | 18841 ft | 470 kts | 76° |
| 2026-04-22 17:01 | 40.41155 | 51.19080 | 19317 ft | 473 kts | 76° |
| 2026-04-22 17:01 | 40.41925 | 51.23349 | 19791 ft | 477 kts | 76° |
| 2026-04-22 17:02 | 40.42683 | 51.27564 | 20242 ft | 480 kts | 76° |
| 2026-04-22 17:02 | 40.43460 | 51.31901 | 20690 ft | 484 kts | 76° |
| 2026-04-22 17:02 | 40.44237 | 51.36243 | 21120 ft | 487 kts | 76° |
| 2026-04-22 17:02 | 40.45017 | 51.40610 | 21550 ft | 491 kts | 76° |
| 2026-04-22 17:03 | 40.45796 | 51.44990 | 21970 ft | 493 kts | 76° |
| 2026-04-22 17:03 | 40.46570 | 51.49471 | 22364 ft | 496 kts | 78° |
| 2026-04-22 17:03 | 40.47202 | 51.53930 | 22737 ft | 499 kts | 79° |
| 2026-04-22 17:03 | 40.47795 | 51.58487 | 23110 ft | 502 kts | 80° |
| 2026-04-22 17:04 | 40.48374 | 51.63031 | 23464 ft | 504 kts | 80° |
| 2026-04-22 17:04 | 40.48959 | 51.67643 | 23918 ft | 504 kts | 81° |
| 2026-04-22 17:04 | 40.49538 | 51.72209 | 24409 ft | 502 kts | 81° |
| 2026-04-22 17:04 | 40.50113 | 51.76752 | 24870 ft | 501 kts | 81° |
| 2026-04-22 17:05 | 40.50692 | 51.81311 | 25304 ft | 501 kts | 81° |
| 2026-04-22 17:05 | 40.51268 | 51.85843 | 25725 ft | 501 kts | 81° |
| 2026-04-22 17:05 | 40.51844 | 51.90384 | 26142 ft | 501 kts | 81° |
| 2026-04-22 17:05 | 40.52417 | 51.94912 | 26551 ft | 501 kts | 81° |
| 2026-04-22 17:06 | 40.53000 | 51.99520 | 26978 ft | 500 kts | 81° |
| 2026-04-22 17:06 | 40.53572 | 52.04069 | 27384 ft | 500 kts | 81° |
| 2026-04-22 17:06 | 40.54135 | 52.08561 | 27778 ft | 500 kts | 81° |
| 2026-04-22 17:06 | 40.54697 | 52.13060 | 28163 ft | 500 kts | 81° |
| 2026-04-22 17:07 | 40.55267 | 52.17652 | 28573 ft | 499 kts | 81° |
| 2026-04-22 17:07 | 40.55828 | 52.22166 | 28977 ft | 499 kts | 81° |
| 2026-04-22 17:07 | 40.56390 | 52.26709 | 29373 ft | 498 kts | 81° |
| 2026-04-22 17:07 | 40.56941 | 52.31184 | 29766 ft | 498 kts | 81° |
| 2026-04-22 17:08 | 40.57496 | 52.35707 | 30148 ft | 498 kts | 80° |
| 2026-04-22 17:08 | 40.58050 | 52.40230 | 30516 ft | 498 kts | 81° |
| 2026-04-22 17:08 | 40.58604 | 52.44767 | 30905 ft | 497 kts | 81° |
| 2026-04-22 17:08 | 40.59157 | 52.49302 | 31275 ft | 497 kts | 81° |
| 2026-04-22 17:09 | 40.59701 | 52.53793 | 31643 ft | 496 kts | 81° |
| 2026-04-22 17:09 | 40.60253 | 52.58358 | 32006 ft | 496 kts | 81° |
| 2026-04-22 17:09 | 40.60790 | 52.62819 | 32336 ft | 496 kts | 81° |
| 2026-04-22 17:09 | 40.61335 | 52.67367 | 32653 ft | 496 kts | 81° |
| 2026-04-22 17:10 | 40.61870 | 52.71849 | 32960 ft | 495 kts | 81° |
| 2026-04-22 17:10 | 40.62412 | 52.76406 | 33257 ft | 495 kts | 81° |
| 2026-04-22 17:10 | 40.62941 | 52.80869 | 33506 ft | 496 kts | 81° |
| 2026-04-22 17:10 | 40.63479 | 52.85410 | 33715 ft | 498 kts | 81° |
| 2026-04-22 17:11 | 40.64003 | 52.89872 | 33900 ft | 499 kts | 81° |
| 2026-04-22 17:11 | 40.64537 | 52.94440 | 34079 ft | 501 kts | 81° |
| 2026-04-22 17:11 | 40.65070 | 52.99003 | 34259 ft | 503 kts | 81° |
| 2026-04-22 17:11 | 40.65602 | 53.03560 | 34441 ft | 504 kts | 81° |
| 2026-04-22 17:12 | 40.66143 | 53.08207 | 34608 ft | 506 kts | 81° |
| 2026-04-22 17:12 | 40.66672 | 53.12783 | 34781 ft | 507 kts | 81° |
| 2026-04-22 17:12 | 40.67204 | 53.17377 | 34951 ft | 507 kts | 81° |
| 2026-04-22 17:12 | 40.67739 | 53.22020 | 34979 ft | 509 kts | 81° |
| 2026-04-22 17:13 | 40.68798 | 53.31271 | 34989 ft | 508 kts | 81° |
| 2026-04-22 17:13 | 40.69845 | 53.40491 | 34992 ft | 509 kts | 81° |
| 2026-04-22 17:14 | 40.70889 | 53.49742 | 34991 ft | 508 kts | 81° |
| 2026-04-22 17:14 | 40.71927 | 53.59016 | 34990 ft | 509 kts | 81° |
| 2026-04-22 17:15 | 40.72951 | 53.68253 | 34990 ft | 508 kts | 82° |
| 2026-04-22 17:15 | 40.73972 | 53.77539 | 34992 ft | 508 kts | 82° |
| 2026-04-22 17:16 | 40.74983 | 53.86791 | 34992 ft | 509 kts | 82° |
| 2026-04-22 17:16 | 40.75986 | 53.96031 | 34992 ft | 509 kts | 82° |
| 2026-04-22 17:17 | 40.76983 | 54.05296 | 34992 ft | 508 kts | 82° |
| 2026-04-22 17:17 | 40.77968 | 54.14498 | 34992 ft | 509 kts | 82° |
| 2026-04-22 17:18 | 40.78952 | 54.23780 | 34991 ft | 509 kts | 82° |
| 2026-04-22 17:18 | 40.79927 | 54.33037 | 34990 ft | 508 kts | 82° |
| 2026-04-22 17:19 | 40.81857 | 54.51569 | 34992 ft | 509 kts | 82° |
| 2026-04-22 17:20 | 40.83754 | 54.70113 | 34990 ft | 508 kts | 82° |
| 2026-04-22 17:21 | 40.85154 | 54.84050 | 34991 ft | 508 kts | 82° |
| 2026-04-22 17:22 | 40.86538 | 54.97956 | 34992 ft | 508 kts | 82° |
| 2026-04-22 17:23 | 40.87916 | 55.11961 | 34992 ft | 510 kts | 82° |
| 2026-04-22 17:23 | 40.89274 | 55.25899 | 34991 ft | 511 kts | 82° |
| 2026-04-22 17:24 | 40.90173 | 55.35271 | 34992 ft | 511 kts | 82° |
| 2026-04-22 17:24 | 40.91064 | 55.44598 | 34990 ft | 511 kts | 82° |
| 2026-04-22 17:25 | 40.91946 | 55.53921 | 34990 ft | 511 kts | 82° |
| 2026-04-22 17:25 | 40.92820 | 55.63265 | 34990 ft | 511 kts | 82° |
| 2026-04-22 17:26 | 40.93687 | 55.72632 | 34992 ft | 511 kts | 83° |
| 2026-04-22 17:26 | 40.94545 | 55.81995 | 34992 ft | 511 kts | 82° |
| 2026-04-22 17:27 | 40.95394 | 55.91294 | 34992 ft | 511 kts | 83° |
| 2026-04-22 17:27 | 40.96249 | 56.00734 | 34992 ft | 511 kts | 83° |
| 2026-04-22 17:28 | 40.97082 | 56.10052 | 34992 ft | 511 kts | 83° |
| 2026-04-22 17:28 | 40.97919 | 56.19427 | 34991 ft | 512 kts | 82° |
| 2026-04-22 17:29 | 40.98750 | 56.28834 | 34990 ft | 512 kts | 83° |
| 2026-04-22 17:29 | 40.99573 | 56.38210 | 34987 ft | 513 kts | 83° |
| 2026-04-22 17:30 | 41.00387 | 56.47628 | 34982 ft | 513 kts | 82° |
| 2026-04-22 17:30 | 41.01371 | 56.57006 | 34969 ft | 513 kts | 80° |
| 2026-04-22 17:31 | 41.02491 | 56.66394 | 34951 ft | 514 kts | 80° |
| 2026-04-22 17:31 | 41.03608 | 56.75744 | 34945 ft | 514 kts | 80° |
| 2026-04-22 17:32 | 41.04716 | 56.85136 | 34940 ft | 515 kts | 80° |
| 2026-04-22 17:32 | 41.05812 | 56.94484 | 34940 ft | 515 kts | 80° |
| 2026-04-22 17:33 | 41.06907 | 57.03888 | 34940 ft | 514 kts | 81° |
| 2026-04-22 17:33 | 41.07990 | 57.13252 | 34940 ft | 513 kts | 81° |
| 2026-04-22 17:34 | 41.09071 | 57.22662 | 34938 ft | 514 kts | 81° |
| 2026-04-22 17:34 | 41.10133 | 57.32000 | 34938 ft | 514 kts | 81° |
| 2026-04-22 17:35 | 41.11227 | 57.41404 | 34939 ft | 514 kts | 81° |
| 2026-04-22 17:35 | 41.12302 | 57.50814 | 34941 ft | 514 kts | 81° |
| 2026-04-22 17:36 | 41.13348 | 57.60162 | 34939 ft | 514 kts | 81° |
| 2026-04-22 17:36 | 41.14386 | 57.69568 | 34937 ft | 513 kts | 81° |
| 2026-04-22 17:37 | 41.15414 | 57.78970 | 34938 ft | 514 kts | 82° |
| 2026-04-22 17:37 | 41.16439 | 57.88403 | 34939 ft | 514 kts | 81° |
| 2026-04-22 17:38 | 41.17460 | 57.97836 | 34939 ft | 514 kts | 81° |
| 2026-04-22 17:38 | 41.18463 | 58.07232 | 34939 ft | 514 kts | 81° |
| 2026-04-22 17:39 | 41.19457 | 58.16613 | 34940 ft | 514 kts | 82° |
| 2026-04-22 17:40 | 41.20950 | 58.30792 | 34940 ft | 514 kts | 82° |
| 2026-04-22 17:40 | 41.21930 | 58.40221 | 34939 ft | 514 kts | 82° |
| 2026-04-22 17:41 | 41.22903 | 58.49646 | 34939 ft | 514 kts | 82° |
| 2026-04-22 17:41 | 41.23865 | 58.59018 | 34940 ft | 513 kts | 82° |
| 2026-04-22 17:42 | 41.24820 | 58.68428 | 34938 ft | 513 kts | 82° |
| 2026-04-22 17:42 | 41.25771 | 58.77907 | 34939 ft | 514 kts | 82° |
| 2026-04-22 17:43 | 41.26707 | 58.87283 | 34940 ft | 514 kts | 82° |
| 2026-04-22 17:43 | 41.27642 | 58.96766 | 34938 ft | 514 kts | 81° |
| 2026-04-22 17:44 | 41.28570 | 59.06189 | 34939 ft | 514 kts | 81° |
| 2026-04-22 17:44 | 41.29493 | 59.15664 | 34940 ft | 513 kts | 81° |
| 2026-04-22 17:45 | 41.30408 | 59.25073 | 34939 ft | 514 kts | 81° |
| 2026-04-22 17:45 | 41.31310 | 59.34491 | 34940 ft | 513 kts | 81° |
| 2026-04-22 17:46 | 41.32211 | 59.43945 | 34938 ft | 514 kts | 81° |
| 2026-04-22 17:46 | 41.33101 | 59.53400 | 34940 ft | 514 kts | 81° |
| 2026-04-22 17:47 | 41.33925 | 59.62830 | 34938 ft | 514 kts | 83° |
| 2026-04-22 17:47 | 41.34089 | 59.72430 | 34934 ft | 516 kts | 92° |
| 2026-04-22 17:48 | 41.33658 | 59.81920 | 34937 ft | 515 kts | 94° |
| 2026-04-22 17:48 | 41.33175 | 59.91467 | 34941 ft | 516 kts | 93° |
| 2026-04-22 17:49 | 41.32715 | 60.01013 | 34940 ft | 515 kts | 93° |
| 2026-04-22 17:49 | 41.32251 | 60.10545 | 34937 ft | 515 kts | 93° |
| 2026-04-22 17:50 | 41.31796 | 60.20054 | 34939 ft | 515 kts | 93° |
| 2026-04-22 17:50 | 41.31332 | 60.29581 | 34937 ft | 515 kts | 93° |
| 2026-04-22 17:51 | 41.30874 | 60.39114 | 34937 ft | 516 kts | 92° |
| 2026-04-22 17:51 | 41.30945 | 60.48659 | 34938 ft | 515 kts | 85° |
| 2026-04-22 17:52 | 41.31456 | 60.58203 | 34936 ft | 514 kts | 84° |
| 2026-04-22 17:52 | 41.31984 | 60.67724 | 34935 ft | 515 kts | 85° |
| 2026-04-22 17:53 | 41.32484 | 60.77228 | 34939 ft | 515 kts | 85° |
| 2026-04-22 17:53 | 41.32968 | 60.86735 | 34939 ft | 515 kts | 85° |
| 2026-04-22 17:54 | 41.33448 | 60.96315 | 34938 ft | 515 kts | 85° |
| 2026-04-22 17:54 | 41.33918 | 61.05790 | 34936 ft | 513 kts | 85° |
| 2026-04-22 17:55 | 41.34377 | 61.15275 | 34938 ft | 509 kts | 84° |
| 2026-04-22 17:55 | 41.34833 | 61.24678 | 34939 ft | 507 kts | 85° |
| 2026-04-22 17:56 | 41.35273 | 61.34026 | 34941 ft | 506 kts | 85° |
| 2026-04-22 17:56 | 41.35707 | 61.43395 | 34937 ft | 506 kts | 85° |
| 2026-04-22 17:57 | 41.36125 | 61.52774 | 34941 ft | 506 kts | 85° |
| 2026-04-22 17:57 | 41.36542 | 61.62159 | 34940 ft | 506 kts | 85° |
| 2026-04-22 17:58 | 41.36954 | 61.71569 | 34940 ft | 506 kts | 85° |
| 2026-04-22 17:58 | 41.37355 | 61.80886 | 34936 ft | 506 kts | 86° |
| 2026-04-22 17:59 | 41.37752 | 61.90321 | 34938 ft | 506 kts | 85° |
| 2026-04-22 17:59 | 41.38145 | 61.99750 | 34940 ft | 506 kts | 85° |
| 2026-04-22 18:00 | 41.38464 | 62.07566 | 34937 ft | 506 kts | 85° |
| 2026-04-22 18:00 | 41.38905 | 62.18524 | 34938 ft | 506 kts | 85° |
| 2026-04-22 18:01 | 41.39274 | 62.27952 | 34936 ft | 505 kts | 85° |
| 2026-04-22 18:01 | 41.39635 | 62.37345 | 34941 ft | 506 kts | 85° |
| 2026-04-22 18:02 | 41.39989 | 62.46739 | 34943 ft | 507 kts | 85° |
| 2026-04-22 18:02 | 41.40342 | 62.56106 | 34947 ft | 506 kts | 85° |
| 2026-04-22 18:03 | 41.40706 | 62.65534 | 34953 ft | 506 kts | 86° |
| 2026-04-22 18:03 | 41.41063 | 62.74949 | 34959 ft | 506 kts | 86° |
| 2026-04-22 18:04 | 41.41415 | 62.84403 | 34964 ft | 506 kts | 86° |
| 2026-04-22 18:04 | 41.41766 | 62.93796 | 34964 ft | 506 kts | 86° |
| 2026-04-22 18:05 | 41.42104 | 63.03192 | 34965 ft | 504 kts | 87° |
| 2026-04-22 18:05 | 41.42433 | 63.12546 | 34964 ft | 501 kts | 87° |
| 2026-04-22 18:06 | 41.42747 | 63.21812 | 34964 ft | 500 kts | 87° |
| 2026-04-22 18:06 | 41.43056 | 63.31105 | 34964 ft | 500 kts | 87° |
| 2026-04-22 18:07 | 41.43361 | 63.40414 | 34964 ft | 500 kts | 87° |
| 2026-04-22 18:07 | 41.43661 | 63.49746 | 34964 ft | 500 kts | 87° |
| 2026-04-22 18:08 | 41.43950 | 63.58942 | 34964 ft | 500 kts | 87° |
| 2026-04-22 18:08 | 41.44231 | 63.68299 | 34962 ft | 500 kts | 88° |
| 2026-04-22 18:09 | 41.44481 | 63.77594 | 34964 ft | 500 kts | 88° |
| 2026-04-22 18:09 | 41.44725 | 63.86894 | 34964 ft | 500 kts | 88° |
| 2026-04-22 18:10 | 41.44966 | 63.96173 | 34964 ft | 500 kts | 88° |
| 2026-04-22 18:10 | 41.45202 | 64.05450 | 34964 ft | 500 kts | 88° |
| 2026-04-22 18:11 | 41.45431 | 64.14735 | 34964 ft | 500 kts | 88° |
| 2026-04-22 18:11 | 41.45652 | 64.24008 | 34964 ft | 500 kts | 88° |
| 2026-04-22 18:12 | 41.45867 | 64.33383 | 34964 ft | 500 kts | 88° |
| 2026-04-22 18:12 | 41.46037 | 64.40985 | 34964 ft | 500 kts | 88° |
| 2026-04-22 18:13 | 41.46272 | 64.51882 | 34964 ft | 500 kts | 88° |
| 2026-04-22 18:13 | 41.46463 | 64.61176 | 34964 ft | 500 kts | 88° |
| 2026-04-22 18:14 | 41.46648 | 64.70536 | 34963 ft | 500 kts | 89° |
| 2026-04-22 18:14 | 41.46823 | 64.79787 | 34964 ft | 500 kts | 89° |
| 2026-04-22 18:15 | 41.46996 | 64.89148 | 34977 ft | 499 kts | 89° |
| 2026-04-22 18:15 | 41.47161 | 64.98442 | 34987 ft | 497 kts | 90° |
| 2026-04-22 18:16 | 41.47315 | 65.07709 | 34991 ft | 495 kts | 90° |
| 2026-04-22 18:16 | 41.47456 | 65.16920 | 34992 ft | 495 kts | 90° |
| 2026-04-22 18:17 | 41.47593 | 65.26135 | 34992 ft | 495 kts | 90° |
| 2026-04-22 18:17 | 41.47725 | 65.35387 | 34992 ft | 495 kts | 90° |
| 2026-04-22 18:18 | 41.47850 | 65.44607 | 34992 ft | 495 kts | 90° |
| 2026-04-22 18:18 | 41.47969 | 65.53903 | 34992 ft | 495 kts | 90° |
| 2026-04-22 18:19 | 41.48080 | 65.63025 | 34992 ft | 495 kts | 90° |
| 2026-04-22 18:19 | 41.48185 | 65.72092 | 34991 ft | 495 kts | 91° |
| 2026-04-22 18:20 | 41.48272 | 65.81335 | 34992 ft | 495 kts | 91° |
| 2026-04-22 18:20 | 41.48293 | 65.90550 | 34992 ft | 495 kts | 91° |
| 2026-04-22 18:21 | 41.48302 | 65.99764 | 34992 ft | 495 kts | 91° |
| 2026-04-22 18:21 | 41.48314 | 66.08974 | 34989 ft | 495 kts | 91° |
| 2026-04-22 18:22 | 41.48321 | 66.18169 | 34978 ft | 495 kts | 91° |
| 2026-04-22 18:22 | 41.48323 | 66.25158 | 34967 ft | 495 kts | 91° |
| 2026-04-22 18:23 | 41.48319 | 66.34229 | 34954 ft | 495 kts | 91° |
| 2026-04-22 18:23 | 41.48311 | 66.43318 | 34946 ft | 495 kts | 91° |
| 2026-04-22 18:24 | 41.48226 | 66.56932 | 34941 ft | 494 kts | 94° |
| 2026-04-22 18:25 | 41.46908 | 66.70421 | 34939 ft | 492 kts | 103° |
| 2026-04-22 18:25 | 41.45592 | 66.79319 | 34939 ft | 492 kts | 104° |
| 2026-04-22 18:26 | 41.43604 | 66.92724 | 34939 ft | 492 kts | 103° |
| 2026-04-22 18:26 | 41.42277 | 67.01684 | 34938 ft | 492 kts | 103° |
| 2026-04-22 18:27 | 41.40941 | 67.10661 | 34938 ft | 495 kts | 103° |
| 2026-04-22 18:27 | 41.39599 | 67.19637 | 34938 ft | 497 kts | 103° |
| 2026-04-22 18:28 | 41.38234 | 67.28732 | 34939 ft | 498 kts | 103° |
| 2026-04-22 18:28 | 41.36872 | 67.37765 | 34939 ft | 498 kts | 103° |
| 2026-04-22 18:29 | 41.35500 | 67.46806 | 34693 ft | 500 kts | 103° |
| 2026-04-22 18:29 | 41.34810 | 67.51335 | 34124 ft | 497 kts | 103° |
| 2026-04-22 18:29 | 41.34131 | 67.55781 | 33426 ft | 496 kts | 103° |
| 2026-04-22 18:30 | 41.33443 | 67.60273 | 32671 ft | 496 kts | 103° |
| 2026-04-22 18:30 | 41.32075 | 67.69186 | 31105 ft | 496 kts | 103° |
| 2026-04-22 18:30 | 41.31417 | 67.73460 | 30319 ft | 496 kts | 103° |
| 2026-04-22 18:31 | 41.30737 | 67.77868 | 29483 ft | 496 kts | 103° |
| 2026-04-22 18:31 | 41.30055 | 67.82275 | 28627 ft | 496 kts | 103° |
| 2026-04-22 18:31 | 41.29382 | 67.86602 | 27761 ft | 496 kts | 103° |
| 2026-04-22 18:31 | 41.28683 | 67.91074 | 26838 ft | 497 kts | 103° |
| 2026-04-22 18:32 | 41.27989 | 67.95519 | 25888 ft | 497 kts | 103° |
| 2026-04-22 18:32 | 41.27297 | 68.00008 | 24890 ft | 498 kts | 103° |
| 2026-04-22 18:32 | 41.26615 | 68.04446 | 23868 ft | 499 kts | 103° |
| 2026-04-22 18:32 | 41.25931 | 68.08906 | 22821 ft | 499 kts | 103° |
| 2026-04-22 18:33 | 41.25238 | 68.13416 | 22144 ft | 490 kts | 103° |
| 2026-04-22 18:33 | 41.24633 | 68.17348 | 21582 ft | 483 kts | 103° |
| 2026-04-22 18:33 | 41.23912 | 68.22009 | 20889 ft | 476 kts | 103° |
| 2026-04-22 18:33 | 41.23253 | 68.26263 | 20237 ft | 470 kts | 103° |
| 2026-04-22 18:34 | 41.22598 | 68.30476 | 19582 ft | 465 kts | 103° |
| 2026-04-22 18:34 | 41.21944 | 68.34671 | 18917 ft | 459 kts | 103° |
| 2026-04-22 18:34 | 41.21297 | 68.38808 | 18255 ft | 454 kts | 103° |
| 2026-04-22 18:34 | 41.20678 | 68.42758 | 17615 ft | 449 kts | 103° |
| 2026-04-22 18:35 | 41.20077 | 68.46589 | 16989 ft | 444 kts | 103° |
| 2026-04-22 18:35 | 41.19447 | 68.50593 | 16341 ft | 438 kts | 103° |
| 2026-04-22 18:35 | 41.18818 | 68.54577 | 15684 ft | 433 kts | 103° |
| 2026-04-22 18:35 | 41.18205 | 68.58459 | 15035 ft | 429 kts | 103° |
| 2026-04-22 18:36 | 41.17596 | 68.62298 | 14390 ft | 424 kts | 103° |
| 2026-04-22 18:36 | 41.17021 | 68.65924 | 13776 ft | 420 kts | 104° |
| 2026-04-22 18:36 | 41.16427 | 68.69671 | 13130 ft | 415 kts | 103° |
| 2026-04-22 18:36 | 41.15835 | 68.73395 | 12492 ft | 411 kts | 103° |
| 2026-04-22 18:37 | 41.15243 | 68.77110 | 11848 ft | 407 kts | 103° |
| 2026-04-22 18:37 | 41.14666 | 68.80725 | 11420 ft | 382 kts | 103° |
| 2026-04-22 18:37 | 41.14140 | 68.84032 | 11157 ft | 348 kts | 104° |
| 2026-04-22 18:37 | 41.13658 | 68.87045 | 10925 ft | 320 kts | 104° |
| 2026-04-22 18:38 | 41.13205 | 68.89865 | 10729 ft | 307 kts | 104° |
| 2026-04-22 18:38 | 41.12759 | 68.92622 | 10558 ft | 297 kts | 104° |
| 2026-04-22 18:38 | 41.12370 | 68.95282 | 10412 ft | 289 kts | 99° |
| 2026-04-22 18:39 | 41.12374 | 69.00549 | 10180 ft | 282 kts | 84° |
| 2026-04-22 18:39 | 41.12663 | 69.03166 | 9933 ft | 295 kts | 83° |
| 2026-04-22 18:39 | 41.12991 | 69.05900 | 9623 ft | 297 kts | 82° |
| 2026-04-22 18:39 | 41.13314 | 69.08591 | 9400 ft | 296 kts | 82° |
| 2026-04-22 18:40 | 41.13634 | 69.11300 | 9189 ft | 294 kts | 83° |
| 2026-04-22 18:40 | 41.13950 | 69.14012 | 8931 ft | 294 kts | 83° |
| 2026-04-22 18:40 | 41.14258 | 69.16688 | 8563 ft | 293 kts | 83° |
| 2026-04-22 18:40 | 41.14559 | 69.19323 | 8191 ft | 290 kts | 83° |
| 2026-04-22 18:41 | 41.14863 | 69.21994 | 7810 ft | 289 kts | 83° |
| 2026-04-22 18:41 | 41.15162 | 69.24631 | 7383 ft | 289 kts | 83° |
| 2026-04-22 18:41 | 41.15461 | 69.27271 | 6997 ft | 287 kts | 82° |
| 2026-04-22 18:41 | 41.15753 | 69.29866 | 6623 ft | 285 kts | 82° |
| 2026-04-22 18:42 | 41.16048 | 69.32481 | 6244 ft | 283 kts | 82° |
| 2026-04-22 18:42 | 41.16336 | 69.35042 | 5870 ft | 281 kts | 82° |
| 2026-04-22 18:42 | 41.16624 | 69.37611 | 5493 ft | 280 kts | 82° |
| 2026-04-22 18:42 | 41.16914 | 69.40205 | 5111 ft | 278 kts | 82° |
| 2026-04-22 18:43 | 41.17195 | 69.42728 | 4693 ft | 279 kts | 82° |
| 2026-04-22 18:43 | 41.17479 | 69.45280 | 4344 ft | 276 kts | 82° |
| 2026-04-22 18:43 | 41.17760 | 69.47812 | 4094 ft | 274 kts | 82° |
| 2026-04-22 18:43 | 41.18209 | 69.50262 | 3820 ft | 275 kts | 63° |
| 2026-04-22 18:44 | 41.19482 | 69.52132 | 3630 ft | 273 kts | 29° |
| 2026-04-22 18:44 | 41.21286 | 69.52854 | 3461 ft | 270 kts | 358° |
| 2026-04-22 18:44 | 41.23149 | 69.52611 | 3297 ft | 268 kts | 349° |
| 2026-04-22 18:44 | 41.25003 | 69.52229 | 3121 ft | 267 kts | 349° |
| 2026-04-22 18:45 | 41.26734 | 69.51660 | 2988 ft | 247 kts | 328° |
| 2026-04-22 18:45 | 41.27863 | 69.50151 | 2984 ft | 218 kts | 293° |
| 2026-04-22 18:45 | 41.28170 | 69.48328 | 2983 ft | 191 kts | 267° |
| 2026-04-22 18:45 | 41.28013 | 69.46666 | 3066 ft | 168 kts | 258° |
| 2026-04-22 18:46 | 41.27801 | 69.45228 | 2999 ft | 145 kts | 257° |
| 2026-04-22 18:46 | 41.27629 | 69.43986 | 2970 ft | 132 kts | 258° |
| 2026-04-22 18:46 | 41.27479 | 69.42784 | 2983 ft | 131 kts | 259° |
| 2026-04-22 18:46 | 41.27338 | 69.41583 | 2989 ft | 131 kts | 259° |
| 2026-04-22 18:47 | 41.27201 | 69.40372 | 2958 ft | 132 kts | 260° |
| 2026-04-22 18:47 | 41.27066 | 69.39172 | 2782 ft | 131 kts | 260° |
| 2026-04-22 18:47 | 41.26933 | 69.37966 | 2616 ft | 131 kts | 260° |
| 2026-04-22 18:47 | 41.26800 | 69.36764 | 2448 ft | 130 kts | 260° |
| 2026-04-22 18:48 | 41.26667 | 69.35568 | 2277 ft | 130 kts | 260° |
| 2026-04-22 18:48 | 41.26536 | 69.34382 | 2103 ft | 130 kts | 261° |
| 2026-04-22 18:48 | 41.26405 | 69.33189 | 1927 ft | 130 kts | 261° |
| 2026-04-22 18:48 | 41.26273 | 69.32000 | 1752 ft | 129 kts | 261° |
| 2026-04-22 18:49 | 41.26143 | 69.30816 | 1580 ft | 129 kts | 261° |
| 2026-04-22 18:49 | 41.26013 | 69.29641 | 1449 ft | 126 kts | 261° |
| 2026-04-22 18:49 | 41.25892 | 69.28571 | 1425 ft | 88 kts | 261° |
| 2026-04-22 18:49 | 41.25845 | 69.28142 | 1425 ft | 14 kts | 262° |
| 2026-04-22 18:50 | 41.25836 | 69.28055 | 1425 ft | 15 kts | 262° |
| 2026-04-22 18:50 | 41.25817 | 69.27859 | 1425 ft | 24 kts | 262° |
| 2026-04-22 18:50 | 41.25793 | 69.27640 | 1425 ft | 19 kts | 261° |
| 2026-04-22 18:50 | 41.25834 | 69.27502 | 1425 ft | 17 kts | 316° |
| 2026-04-22 18:51 | 41.25924 | 69.27395 | 1425 ft | 17 kts | 317° |
| 2026-04-22 18:51 | 41.26018 | 69.27287 | 1425 ft | 18 kts | 319° |
| 2026-04-22 18:51 | 41.26098 | 69.27197 | 1425 ft | 11 kts | 319° |
| 2026-04-22 18:51 | 41.26120 | 69.27108 | 1425 ft | 11 kts | 248° |
| 2026-04-22 18:52 | 41.26087 | 69.27009 | 1425 ft | 12 kts | 246° |
| 2026-04-22 18:52 | 41.26054 | 69.26907 | 1425 ft | 11 kts | 246° |
| 2026-04-22 18:52 | 41.26044 | 69.26840 | 1425 ft | 5 kts | 290° |
| 2026-04-22 18:52 | 41.26076 | 69.26808 | 1425 ft | 3 kts | 333° |
| 2026-04-22 18:53 | 41.26102 | 69.26790 | 1425 ft | 5 kts | 328° |
| 2026-04-22 18:53 | 41.26129 | 69.26768 | 1425 ft | 2 kts | 328° |
| 2026-04-22 18:53 | 41.26141 | 69.26758 | 1425 ft | 0 kts | 328° |